createdAt,value
2018-11-03T00:01:56.299Z,4.40
2018-11-03T00:04:24.778Z,4.80
2018-11-03T00:06:53.258Z,4.07
2018-11-03T00:09:21.763Z,4.03
2018-11-03T00:11:50.251Z,4.53
2018-11-03T00:14:18.732Z,4.20
2018-11-03T00:16:47.238Z,4.20
2018-11-03T00:19:15.723Z,4.00
2018-11-03T00:21:44.212Z,4.03
2018-11-03T00:24:12.706Z,4.27
2018-11-03T00:26:41.190Z,4.23
2018-11-03T00:29:09.672Z,4.37
2018-11-03T00:31:38.155Z,3.90
2018-11-03T00:34:06.761Z,4.13
2018-11-03T00:36:35.231Z,4.00
2018-11-03T00:39:05.204Z,4.20
2018-11-03T00:41:33.684Z,4.33
2018-11-03T00:44:02.172Z,4.00
2018-11-03T00:46:30.638Z,4.47
2018-11-03T00:48:59.103Z,3.53
2018-11-03T00:51:27.585Z,4.07
2018-11-03T00:53:56.057Z,4.00
2018-11-03T00:56:24.563Z,4.03
2018-11-03T00:58:53.054Z,4.27
2018-11-03T01:01:21.524Z,3.93
2018-11-03T01:03:50.008Z,3.97
2018-11-03T01:06:18.478Z,4.00
2018-11-03T01:08:46.951Z,4.37
2018-11-03T01:11:15.440Z,4.13
2018-11-03T01:13:43.941Z,3.97
2018-11-03T01:16:12.400Z,3.93
2018-11-03T01:18:40.883Z,3.73
2018-11-03T01:21:09.359Z,4.07
2018-11-03T01:23:37.879Z,4.10
2018-11-03T01:26:06.388Z,4.00
2018-11-03T01:28:34.874Z,4.50
2018-11-03T01:31:03.348Z,4.30
2018-11-03T01:33:31.802Z,4.17
2018-11-03T01:36:00.253Z,4.10
2018-11-03T01:38:28.724Z,3.40
2018-11-03T01:40:57.182Z,3.80
2018-11-03T01:43:25.682Z,4.20
2018-11-03T01:45:54.164Z,4.27
2018-11-03T01:48:22.637Z,3.93
2018-11-03T01:50:51.101Z,3.70
2018-11-03T01:53:19.588Z,4.03
2018-11-03T01:55:48.061Z,4.17
2018-11-03T01:58:16.540Z,4.20
2018-11-03T02:00:45.336Z,3.73
2018-11-03T02:03:13.815Z,4.10
2018-11-03T02:05:42.307Z,4.47
2018-11-03T02:08:10.813Z,4.40
2018-11-03T02:10:39.283Z,4.20
2018-11-03T02:13:07.773Z,4.23
2018-11-03T02:15:36.242Z,3.63
2018-11-03T02:18:04.717Z,4.20
2018-11-03T02:20:33.216Z,3.70
2018-11-03T02:23:01.700Z,4.47
2018-11-03T02:25:30.174Z,3.97
2018-11-03T02:27:58.630Z,4.23
2018-11-03T02:30:27.105Z,4.53
2018-11-03T02:32:55.601Z,4.17
2018-11-03T02:35:24.080Z,4.10
2018-11-03T02:37:52.557Z,4.33
2018-11-03T02:40:21.041Z,4.20
2018-11-03T02:42:49.567Z,3.83
2018-11-03T02:45:18.042Z,4.10
2018-11-03T02:47:46.505Z,3.90
2018-11-03T02:50:15.051Z,3.80
2018-11-03T02:52:43.738Z,4.17
2018-11-03T02:55:12.154Z,4.10
2018-11-03T02:57:40.623Z,3.47
2018-11-03T03:00:10.375Z,4.20
2018-11-03T03:02:38.843Z,4.10
2018-11-03T03:05:08.439Z,4.27
2018-11-03T03:07:36.930Z,3.80
2018-11-03T03:10:07.366Z,4.00
2018-11-03T03:12:36.239Z,4.10
2018-11-03T03:15:05.242Z,3.80
2018-11-03T03:17:33.715Z,4.00
2018-11-03T03:20:02.188Z,3.70
2018-11-03T03:22:30.740Z,3.80
2018-11-03T03:24:59.323Z,4.07
2018-11-03T03:27:27.799Z,3.97
2018-11-03T03:29:56.275Z,3.80
2018-11-03T03:32:24.750Z,3.93
2018-11-03T03:34:53.241Z,3.50
2018-11-03T03:37:21.723Z,3.73
2018-11-03T03:39:50.247Z,3.57
2018-11-03T03:42:18.804Z,3.70
2018-11-03T03:44:47.294Z,3.70
2018-11-03T03:47:15.783Z,3.90
2018-11-03T03:49:44.281Z,4.17
2018-11-03T03:52:12.773Z,3.53
2018-11-03T03:54:41.271Z,3.50
2018-11-03T03:57:09.774Z,3.57
2018-11-03T03:59:38.279Z,3.73
2018-11-03T04:02:06.849Z,3.60
2018-11-03T04:04:35.365Z,3.80
2018-11-03T04:07:03.842Z,3.77
2018-11-03T04:09:32.311Z,3.70
2018-11-03T04:12:00.799Z,3.57
2018-11-03T04:14:29.287Z,3.30
2018-11-03T04:16:57.754Z,3.60
2018-11-03T04:19:26.281Z,3.43
2018-11-03T04:21:54.727Z,3.57
2018-11-03T04:24:23.207Z,3.53
2018-11-03T04:26:51.708Z,3.50
2018-11-03T04:29:20.188Z,3.67
2018-11-03T04:31:48.671Z,3.83
2018-11-03T04:34:17.178Z,3.37
2018-11-03T04:36:45.668Z,3.60
2018-11-03T04:39:14.159Z,3.90
2018-11-03T04:41:42.657Z,3.30
2018-11-03T04:44:11.154Z,3.60
2018-11-03T04:46:39.635Z,3.43
2018-11-03T04:49:08.133Z,3.77
2018-11-03T04:51:36.642Z,3.53
2018-11-03T04:54:05.132Z,3.53
2018-11-03T04:56:33.636Z,3.70
2018-11-03T04:59:02.120Z,3.73
2018-11-03T05:01:30.583Z,3.50
2018-11-03T05:03:59.099Z,3.53
2018-11-03T05:06:27.611Z,3.50
2018-11-03T05:08:56.098Z,3.33
2018-11-03T05:11:24.575Z,3.47
2018-11-03T05:13:53.067Z,3.67
2018-11-03T05:16:21.562Z,3.87
2018-11-03T05:18:50.056Z,3.10
2018-11-03T05:21:18.631Z,3.70
2018-11-03T05:23:47.033Z,3.47
2018-11-03T05:26:15.517Z,3.60
2018-11-03T05:28:44.002Z,3.57
2018-11-03T05:31:12.556Z,3.47
2018-11-03T05:33:40.997Z,3.43
2018-11-03T05:36:09.497Z,3.53
2018-11-03T05:38:37.994Z,3.33
2018-11-03T05:41:06.708Z,3.20
2018-11-03T05:43:35.178Z,3.67
2018-11-03T05:46:03.662Z,3.70
2018-11-03T05:48:32.160Z,3.77
2018-11-03T05:51:00.647Z,3.50
2018-11-03T05:53:29.171Z,3.80
2018-11-03T05:55:57.685Z,3.53
2018-11-03T05:58:26.207Z,3.33
2018-11-03T06:00:54.748Z,3.40
2018-11-03T06:03:23.260Z,3.67
2018-11-03T06:05:51.727Z,3.80
2018-11-03T06:08:20.302Z,4.10
2018-11-03T06:10:48.790Z,3.30
2018-11-03T06:13:17.312Z,3.97
2018-11-03T06:15:45.842Z,3.60
2018-11-03T06:18:14.336Z,3.23
2018-11-03T06:20:42.848Z,3.60
2018-11-03T06:23:11.467Z,3.63
2018-11-03T06:25:39.819Z,3.77
2018-11-03T06:28:08.447Z,3.90
2018-11-03T06:30:36.826Z,3.53
2018-11-03T06:33:05.574Z,3.60
2018-11-03T06:35:34.068Z,3.53
2018-11-03T06:38:02.542Z,3.70
2018-11-03T06:40:31.035Z,4.00
2018-11-03T06:42:59.528Z,3.60
2018-11-03T06:45:28.023Z,4.20
2018-11-03T06:47:56.494Z,3.90
2018-11-03T06:50:25.012Z,3.70
2018-11-03T06:52:53.506Z,4.00
2018-11-03T06:55:21.983Z,3.70
2018-11-03T06:57:50.480Z,3.67
2018-11-03T07:00:18.964Z,3.60
2018-11-03T07:02:47.460Z,3.80
2018-11-03T07:05:16.019Z,4.10
2018-11-03T07:07:44.472Z,3.93
2018-11-03T07:10:12.970Z,3.70
2018-11-03T07:12:41.744Z,4.10
2018-11-03T07:15:10.047Z,4.20
2018-11-03T07:17:38.525Z,4.23
2018-11-03T07:20:09.066Z,4.10
2018-11-03T07:22:37.602Z,4.23
2018-11-03T07:25:06.621Z,4.30
2018-11-03T07:27:35.104Z,3.73
2018-11-03T07:30:03.675Z,3.70
2018-11-03T07:32:32.164Z,3.97
2018-11-03T07:35:00.654Z,4.23
2018-11-03T07:37:29.168Z,4.47
2018-11-03T07:39:57.643Z,4.10
2018-11-03T07:42:26.223Z,4.20
2018-11-03T07:44:54.633Z,4.27
2018-11-03T07:47:23.118Z,3.30
2018-11-03T07:49:51.605Z,3.97
2018-11-03T07:52:20.088Z,3.93
2018-11-03T07:54:48.641Z,4.30
2018-11-03T07:57:17.082Z,4.17
2018-11-03T07:59:45.610Z,3.80
2018-11-03T08:02:14.095Z,4.27
2018-11-03T08:04:42.602Z,4.40
2018-11-03T08:07:11.107Z,4.30
2018-11-03T08:09:39.598Z,4.57
2018-11-03T08:12:08.066Z,4.30
2018-11-03T08:14:36.565Z,4.33
2018-11-03T08:17:05.063Z,4.27
2018-11-03T08:19:33.545Z,4.90
2018-11-03T08:22:02.025Z,4.40
2018-11-03T08:24:30.547Z,4.40
2018-11-03T08:26:59.036Z,4.60
2018-11-03T08:29:27.527Z,4.53
2018-11-03T08:31:56.005Z,4.70
2018-11-03T08:34:24.485Z,4.90
2018-11-03T08:36:52.980Z,4.20
2018-11-03T08:39:21.505Z,4.47
2018-11-03T08:41:49.991Z,4.60
2018-11-03T08:44:18.471Z,4.80
2018-11-03T08:46:46.962Z,4.50
2018-11-03T08:49:15.479Z,4.93
2018-11-03T08:51:43.973Z,4.53
2018-11-03T08:54:12.482Z,5.10
2018-11-03T08:56:40.983Z,5.00
2018-11-03T08:59:09.527Z,4.70
2018-11-03T09:01:38.027Z,5.13
2018-11-03T09:04:06.837Z,5.17
2018-11-03T09:06:35.307Z,4.90
2018-11-03T09:09:03.993Z,5.43
2018-11-03T09:11:32.469Z,4.50
2018-11-03T09:14:00.956Z,4.70
2018-11-03T09:16:29.435Z,4.90
2018-11-03T09:18:57.925Z,4.97
2018-11-03T09:21:26.446Z,4.73
2018-11-03T09:23:54.930Z,5.60
2018-11-03T09:26:23.456Z,4.80
2018-11-03T09:28:51.996Z,4.57
2018-11-03T09:31:20.481Z,4.50
2018-11-03T09:33:48.981Z,4.77
2018-11-03T09:36:17.459Z,5.23
2018-11-03T09:38:46.049Z,4.90
2018-11-03T09:41:14.482Z,4.90
2018-11-03T09:43:42.967Z,4.80
2018-11-03T09:46:11.434Z,4.80
2018-11-03T09:48:39.950Z,4.70
2018-11-03T09:51:08.500Z,4.83
2018-11-03T09:53:36.919Z,4.50
2018-11-03T09:56:05.624Z,4.80
2018-11-03T09:58:34.151Z,4.77
2018-11-03T10:01:02.716Z,4.47
2018-11-03T10:03:31.254Z,5.33
2018-11-03T10:05:59.730Z,4.80
2018-11-03T10:08:28.204Z,4.80
2018-11-03T10:10:56.682Z,5.07
2018-11-03T10:13:25.163Z,5.27
2018-11-03T10:15:53.707Z,4.77
2018-11-03T10:18:22.166Z,5.00
2018-11-03T10:20:50.674Z,5.03
2018-11-03T10:23:19.150Z,4.80
2018-11-03T10:25:47.626Z,4.87
2018-11-03T10:28:16.101Z,4.60
2018-11-03T10:30:44.620Z,5.30
2018-11-03T10:33:13.112Z,4.43
2018-11-03T10:35:41.698Z,4.90
2018-11-03T10:38:10.168Z,4.93
2018-11-03T10:40:38.637Z,4.97
2018-11-03T10:43:07.145Z,4.80
2018-11-03T10:45:35.632Z,4.93
2018-11-03T10:48:04.122Z,4.80
2018-11-03T10:50:32.607Z,5.10
2018-11-03T10:53:01.138Z,5.37
2018-11-03T10:55:29.602Z,5.17
2018-11-03T10:57:58.089Z,5.20
2018-11-03T11:00:31.708Z,4.43
2018-11-03T11:03:05.246Z,5.17
2018-11-03T11:06:41.878Z,4.57
2018-11-03T11:09:15.591Z,4.47
2018-11-03T11:12:51.022Z,4.83
2018-11-03T11:15:19.507Z,4.97
2018-11-03T11:17:48.039Z,5.00
2018-11-03T11:20:16.511Z,5.33
2018-11-03T11:22:44.996Z,5.33
2018-11-03T11:25:13.505Z,4.83
2018-11-03T11:27:41.970Z,4.93
2018-11-03T11:30:11.594Z,5.17
2018-11-03T11:32:40.193Z,4.90
2018-11-03T11:35:08.700Z,5.50
2018-11-03T11:37:37.438Z,4.87
2018-11-03T11:40:06.535Z,5.37
2018-11-03T11:42:35.027Z,5.10
2018-11-03T11:45:03.543Z,5.17
2018-11-03T11:47:32.022Z,4.73
2018-11-03T11:50:00.504Z,5.53
2018-11-03T11:52:28.991Z,5.17
2018-11-03T11:54:57.615Z,5.23
2018-11-03T11:57:26.012Z,5.23
2018-11-03T11:59:54.484Z,4.97
2018-11-03T12:02:22.985Z,5.23
2018-11-03T12:04:51.433Z,4.60
2018-11-03T12:07:19.932Z,5.23
2018-11-03T12:09:48.469Z,4.80
2018-11-03T12:12:16.929Z,4.97
2018-11-03T12:14:45.519Z,4.77
2018-11-03T12:17:14.003Z,5.30
2018-11-03T12:19:42.473Z,4.97
2018-11-03T12:22:10.939Z,5.00
2018-11-03T12:24:39.423Z,5.07
2018-11-03T12:27:07.928Z,5.27
2018-11-03T12:29:36.422Z,5.27
2018-11-03T12:32:05.204Z,4.77
2018-11-03T12:34:33.711Z,5.23
2018-11-03T12:37:02.188Z,4.93
2018-11-03T12:39:30.658Z,5.13
2018-11-03T12:41:59.169Z,5.60
2018-11-03T12:44:27.659Z,5.83
2018-11-03T12:46:56.163Z,5.20
2018-11-03T12:49:24.637Z,5.63
2018-11-03T12:51:53.121Z,5.37
2018-11-03T12:54:21.623Z,5.40
2018-11-03T12:56:50.127Z,5.57
2018-11-03T12:59:18.667Z,5.23
2018-11-03T13:01:47.139Z,5.23
2018-11-03T13:04:15.605Z,5.23
2018-11-03T13:06:44.111Z,5.27
2018-11-03T13:09:12.633Z,5.27
2018-11-03T13:11:41.340Z,5.67
2018-11-03T13:14:09.816Z,5.37
2018-11-03T13:16:38.292Z,5.60
2018-11-03T13:19:06.835Z,5.40
2018-11-03T13:21:35.317Z,5.00
2018-11-03T13:24:03.783Z,4.90
2018-11-03T13:26:32.529Z,5.40
2018-11-03T13:29:01.085Z,5.43
2018-11-03T13:31:29.550Z,5.70
2018-11-03T13:33:58.013Z,5.03
2018-11-03T13:36:26.510Z,4.97
2018-11-03T13:38:54.987Z,5.10
2018-11-03T13:41:23.453Z,5.00
2018-11-03T13:43:51.916Z,5.10
2018-11-03T13:46:20.379Z,5.07
2018-11-03T13:48:48.860Z,4.83
2018-11-03T13:51:17.328Z,4.77
2018-11-03T13:53:45.831Z,4.87
2018-11-03T13:56:14.314Z,5.07
2018-11-03T13:58:42.776Z,5.23
2018-11-03T14:01:11.239Z,5.67
2018-11-03T14:03:39.758Z,5.17
2018-11-03T14:06:08.222Z,4.97
2018-11-03T14:08:36.743Z,5.00
2018-11-03T14:11:05.328Z,5.17
2018-11-03T14:13:33.804Z,5.20
2018-11-03T14:16:02.271Z,5.20
2018-11-03T14:18:30.740Z,5.10
2018-11-03T14:20:59.228Z,4.50
2018-11-03T14:23:27.719Z,4.67
2018-11-03T14:25:56.187Z,5.00
2018-11-03T14:28:24.898Z,4.70
2018-11-03T14:30:53.402Z,5.03
2018-11-03T14:33:21.896Z,5.03
2018-11-03T14:35:50.342Z,5.10
2018-11-03T14:38:18.819Z,5.50
2018-11-03T14:40:47.296Z,4.93
2018-11-03T14:43:15.768Z,4.80
2018-11-03T14:45:44.217Z,4.90
2018-11-03T14:48:12.722Z,4.90
2018-11-03T14:50:41.230Z,4.67
2018-11-03T14:53:09.715Z,4.63
2018-11-03T14:55:38.182Z,5.03
2018-11-03T14:58:06.647Z,5.23
2018-11-03T15:00:35.943Z,5.10
2018-11-03T15:03:04.844Z,4.83
2018-11-03T15:05:33.320Z,4.50
2018-11-03T15:08:01.811Z,4.50
2018-11-03T15:10:30.272Z,5.27
2018-11-03T15:12:58.748Z,4.60
2018-11-03T15:15:27.217Z,4.87
2018-11-03T15:17:55.700Z,5.13
2018-11-03T15:20:24.156Z,5.07
2018-11-03T15:22:52.619Z,4.70
2018-11-03T15:25:21.116Z,4.63
2018-11-03T15:27:50.454Z,5.00
2018-11-03T15:30:18.936Z,4.67
2018-11-03T15:32:47.401Z,4.70
2018-11-03T15:35:15.868Z,4.77
2018-11-03T15:37:44.355Z,4.63
2018-11-03T15:40:14.311Z,5.23
2018-11-03T15:42:43.194Z,5.10
2018-11-03T15:45:14.863Z,4.93
2018-11-03T15:47:43.839Z,5.30
2018-11-03T15:50:13.355Z,4.90
2018-11-03T15:52:42.148Z,4.97
2018-11-03T15:55:10.682Z,4.87
2018-11-03T15:57:39.166Z,5.00
2018-11-03T16:00:10.740Z,4.53
2018-11-03T16:02:39.250Z,5.43
2018-11-03T16:05:07.709Z,5.40
2018-11-03T16:07:36.187Z,4.93
2018-11-03T16:10:05.519Z,4.70
2018-11-03T16:12:33.994Z,4.87
2018-11-03T16:15:02.512Z,5.23
2018-11-03T16:17:31.013Z,4.97
2018-11-03T16:19:59.487Z,4.70
2018-11-03T16:22:28.018Z,4.67
2018-11-03T16:24:56.499Z,5.03
2018-11-03T16:27:24.975Z,5.13
2018-11-03T16:29:53.567Z,4.83
2018-11-03T16:32:22.353Z,4.90
2018-11-03T16:34:50.632Z,5.27
2018-11-03T16:37:19.109Z,5.13
2018-11-03T16:39:47.577Z,4.93
2018-11-03T16:42:16.075Z,4.73
2018-11-03T16:44:44.679Z,4.80
2018-11-03T16:47:13.183Z,4.90
2018-11-03T16:49:42.362Z,4.93
2018-11-03T16:52:10.830Z,4.47
2018-11-03T16:54:39.321Z,4.90
2018-11-03T16:57:07.806Z,4.70
2018-11-03T16:59:36.298Z,4.93
2018-11-03T17:02:05.061Z,4.70
2018-11-03T17:04:33.540Z,4.70
2018-11-03T17:07:02.126Z,4.97
2018-11-03T17:09:30.526Z,4.90
2018-11-03T17:11:58.999Z,4.50
2018-11-03T17:14:27.478Z,4.40
2018-11-03T17:16:56.025Z,4.57
2018-11-03T17:19:24.610Z,4.73
2018-11-03T17:21:53.105Z,4.50
2018-11-03T17:24:21.599Z,4.63
2018-11-03T17:26:50.117Z,4.60
2018-11-03T17:29:18.586Z,4.37
2018-11-03T17:31:47.051Z,5.00
2018-11-03T17:34:15.539Z,4.73
2018-11-03T17:36:44.015Z,4.90
2018-11-03T17:39:12.682Z,4.40
2018-11-03T17:41:41.155Z,4.87
2018-11-03T17:44:09.669Z,4.47
2018-11-03T17:46:38.143Z,4.70
2018-11-03T17:49:06.898Z,5.00
2018-11-03T17:51:35.410Z,4.60
2018-11-03T17:54:03.878Z,4.57
2018-11-03T17:56:32.491Z,5.03
2018-11-03T17:59:00.956Z,4.93
2018-11-03T18:01:29.560Z,5.03
2018-11-03T18:03:57.982Z,4.53
2018-11-03T18:06:26.480Z,5.23
2018-11-03T18:08:54.983Z,4.67
2018-11-03T18:11:23.476Z,4.97
2018-11-03T18:13:51.955Z,4.80
2018-11-03T18:16:20.430Z,5.50
2018-11-03T18:18:48.893Z,5.00
2018-11-03T18:21:17.361Z,5.20
2018-11-03T18:23:45.844Z,5.03
2018-11-03T18:26:14.443Z,4.67
2018-11-03T18:28:42.847Z,5.13
2018-11-03T18:31:11.331Z,5.50
2018-11-03T18:33:39.835Z,5.10
2018-11-03T18:36:08.324Z,5.30
2018-11-03T18:38:36.799Z,5.27
2018-11-03T18:41:05.297Z,5.73
2018-11-03T18:43:33.796Z,5.63
2018-11-03T18:46:02.286Z,5.53
2018-11-03T18:48:30.947Z,5.10
2018-11-03T18:50:59.431Z,5.30
2018-11-03T18:53:27.931Z,5.13
2018-11-03T18:55:56.411Z,5.60
2018-11-03T18:58:24.914Z,5.50
2018-11-03T19:00:53.400Z,5.63
2018-11-03T19:03:21.940Z,5.97
2018-11-03T19:05:50.458Z,5.87
2018-11-03T19:08:18.940Z,6.00
2018-11-03T19:10:47.457Z,5.47
2018-11-03T19:13:15.958Z,6.03
2018-11-03T19:15:44.468Z,6.30
2018-11-03T19:18:13.030Z,6.43
2018-11-03T19:20:41.520Z,6.97
2018-11-03T19:23:10.040Z,6.20
2018-11-03T19:25:38.511Z,6.30
2018-11-03T19:28:06.970Z,6.90
2018-11-03T19:30:35.431Z,6.70
2018-11-03T19:33:03.964Z,7.03
2018-11-03T19:35:32.448Z,6.67
2018-11-03T19:38:00.932Z,7.10
2018-11-03T19:40:29.409Z,6.77
2018-11-03T19:42:57.869Z,6.70
2018-11-03T19:45:26.374Z,7.77
2018-11-03T19:47:54.832Z,7.43
2018-11-03T19:50:23.311Z,7.20
2018-11-03T19:52:51.778Z,7.37
2018-11-03T19:55:20.281Z,7.57
2018-11-03T19:57:48.756Z,7.53
2018-11-03T20:00:17.215Z,8.67
2018-11-03T20:02:46.379Z,7.93
2018-11-03T20:05:14.806Z,8.20
2018-11-03T20:07:44.176Z,7.80
2018-11-03T20:10:13.001Z,7.80
2018-11-03T20:12:41.487Z,9.10
2018-11-03T20:15:11.176Z,8.43
2018-11-03T20:17:39.643Z,7.97
2018-11-03T20:20:10.082Z,8.90
2018-11-03T20:22:38.566Z,8.13
2018-11-03T20:25:08.071Z,8.80
2018-11-03T20:27:36.747Z,8.97
2018-11-03T20:30:06.989Z,8.90
2018-11-03T20:32:35.458Z,8.57
2018-11-03T20:35:03.936Z,9.20
2018-11-03T20:37:32.443Z,9.13
2018-11-03T20:40:00.926Z,9.60
2018-11-03T20:42:29.417Z,9.93
2018-11-03T20:44:57.893Z,9.07
2018-11-03T20:47:26.365Z,9.17
2018-11-03T20:49:54.855Z,9.33
2018-11-03T20:52:23.356Z,9.90
2018-11-03T20:54:51.865Z,9.67
2018-11-03T20:57:20.368Z,10.13
2018-11-03T20:59:48.842Z,10.73
2018-11-03T21:02:17.335Z,9.63
2018-11-03T21:04:45.844Z,10.10
2018-11-03T21:07:14.374Z,9.93
2018-11-03T21:09:42.850Z,10.17
2018-11-03T21:12:11.574Z,9.60
2018-11-03T21:14:40.056Z,9.83
2018-11-03T21:17:08.531Z,9.87
2018-11-03T21:19:37.011Z,10.20
2018-11-03T21:22:09.157Z,10.43
2018-11-03T21:24:37.960Z,10.40
2018-11-03T21:27:07.878Z,10.53
2018-11-03T21:29:36.409Z,11.10
2018-11-03T21:32:05.299Z,10.77
2018-11-03T21:34:33.742Z,11.60
2018-11-03T21:37:02.242Z,10.93
2018-11-03T21:39:30.736Z,11.40
2018-11-03T21:41:59.214Z,11.30
2018-11-03T21:44:27.695Z,11.10
2018-11-03T21:46:56.313Z,10.53
2018-11-03T21:49:24.808Z,10.47
2018-11-03T21:51:53.311Z,11.37
2018-11-03T21:54:21.826Z,11.20
2018-11-03T21:56:50.470Z,12.07
2018-11-03T21:59:18.983Z,10.97
2018-11-03T22:01:47.458Z,11.33
2018-11-03T22:04:15.978Z,11.17
2018-11-03T22:06:44.471Z,11.53
2018-11-03T22:09:13.787Z,10.80
2018-11-03T22:11:42.305Z,11.20
2018-11-03T22:14:10.822Z,11.80
2018-11-03T22:16:39.320Z,11.83
2018-11-03T22:19:07.817Z,11.73
2018-11-03T22:21:36.341Z,11.80
2018-11-03T22:24:04.990Z,12.60
2018-11-03T22:26:33.491Z,11.53
2018-11-03T22:29:01.988Z,12.73
2018-11-03T22:31:30.863Z,12.17
2018-11-03T22:33:59.372Z,11.67
2018-11-03T22:36:27.887Z,11.87
2018-11-03T22:38:56.598Z,12.47
2018-11-03T22:41:25.082Z,13.00
2018-11-03T22:43:53.570Z,12.50
2018-11-03T22:46:22.081Z,12.63
2018-11-03T22:48:50.576Z,11.83
2018-11-03T22:51:19.118Z,11.70
2018-11-03T22:53:47.562Z,12.63
2018-11-03T22:56:16.050Z,13.27
2018-11-03T22:58:44.544Z,12.67
2018-11-03T23:01:13.035Z,13.80
2018-11-03T23:03:41.519Z,12.63
2018-11-03T23:06:10.001Z,12.87
2018-11-03T23:08:38.555Z,12.40
2018-11-03T23:11:07.044Z,12.57
2018-11-03T23:13:35.526Z,12.83
2018-11-03T23:16:04.047Z,12.80
2018-11-03T23:18:32.525Z,12.27
2018-11-03T23:21:01.077Z,12.77
2018-11-03T23:23:29.580Z,12.77
2018-11-03T23:25:58.061Z,12.90
2018-11-03T23:28:26.582Z,13.07
2018-11-03T23:30:55.109Z,13.53
2018-11-03T23:33:23.586Z,13.23
2018-11-03T23:35:52.107Z,13.07
2018-11-03T23:38:20.573Z,13.10
2018-11-03T23:40:49.055Z,13.20
2018-11-03T23:43:17.537Z,13.13
2018-11-03T23:45:46.029Z,13.13
2018-11-03T23:48:14.511Z,13.40
2018-11-03T23:50:43.026Z,13.50
2018-11-03T23:53:11.588Z,13.20
2018-11-03T23:55:40.014Z,11.93
2018-11-03T23:58:08.499Z,13.30
